Time;durP1;ratioP1;P1;durP2;ratioP2;P2;SDS_P1;SDS_P2;PMS_P1;PMS_P2;Temp;Humidity;BMP_temperature;BMP_pressure;BME280_temperature;BME280_humidity;BME280_pressure;Samples;Min_cycle;Max_cycle;Signal;HPM_P1;HPM_P2
2023/03/14 00:00:41;;;;;;;12.40;5.40;;;;;;;8.52;100.00;97414.25;108999;1260;73758;-71
2023/03/14 00:03:29;;;;;;;10.90;5.20;;;;;;;8.54;100.00;97417.65;108949;1261;59492;-72
2023/03/14 00:06:17;;;;;;;11.40;5.80;;;;;;;8.54;100.00;97422.36;108974;1260;59758;-73
2023/03/14 00:09:04;;;;;;;10.90;5.50;;;;;;;8.54;100.00;97421.80;108905;1260;72981;-71
2023/03/14 00:11:50;;;;;;;10.00;4.80;;;;;;;8.54;100.00;97424.86;108225;1260;1002312;-72
2023/03/14 00:14:36;;;;;;;10.50;4.90;;;;;;;8.53;100.00;97430.98;108950;1260;71254;-70
2023/03/14 00:17:23;;;;;;;9.60;4.60;;;;;;;8.53;100.00;97428.86;109002;1260;58322;-69
2023/03/14 00:20:11;;;;;;;11.60;5.30;;;;;;;8.55;100.00;97433.79;109005;1259;61373;-71
2023/03/14 00:22:57;;;;;;;11.40;5.00;;;;;;;8.55;100.00;97434.33;109002;1260;72954;-71
2023/03/14 00:25:43;;;;;;;11.50;5.40;;;;;;;8.54;100.00;97428.02;108917;1260;68917;-71
2023/03/14 00:28:30;;;;;;;11.60;5.10;;;;;;;8.52;100.00;97422.93;109009;1260;73477;-71
2023/03/14 00:31:17;;;;;;;11.10;5.30;;;;;;;8.53;100.00;97415.45;109011;1260;57989;-71
2023/03/14 00:34:03;;;;;;;12.50;5.20;;;;;;;8.54;100.00;97423.61;108925;1260;58777;-70
2023/03/14 00:36:51;;;;;;;11.70;5.30;;;;;;;8.56;100.00;97420.00;108985;1260;74032;-71
2023/03/14 00:39:37;;;;;;;9.70;4.50;;;;;;;8.57;100.00;97416.71;108991;1260;68855;-70
2023/03/14 00:42:24;;;;;;;12.50;5.00;;;;;;;8.58;100.00;97415.36;108914;1260;71273;-72
2023/03/14 00:45:10;;;;;;;10.00;4.70;;;;;;;8.59;100.00;97411.17;108985;1260;57725;-70
2023/03/14 00:47:58;;;;;;;12.20;5.20;;;;;;;8.59;100.00;97408.97;109003;1260;59250;-71
2023/03/14 00:50:45;;;;;;;11.40;4.90;;;;;;;8.60;100.00;97408.98;109033;1260;72580;-71
2023/03/14 00:53:38;;;;;;;11.80;5.50;;;;;;;8.61;100.00;97412.80;108971;1260;68901;-71
2023/03/14 00:56:24;;;;;;;9.40;5.00;;;;;;;8.61;100.00;97413.77;108999;1260;71389;-71
2023/03/14 00:59:11;;;;;;;11.60;4.80;;;;;;;8.64;100.00;97411.39;109021;1260;59376;-71
2023/03/14 01:01:58;;;;;;;10.70;5.10;;;;;;;8.67;100.00;97418.14;108921;1260;60475;-72
2023/03/14 01:04:47;;;;;;;10.30;4.60;;;;;;;8.68;100.00;97413.50;109011;1260;74143;-72
2023/03/14 01:07:34;;;;;;;11.80;4.70;;;;;;;8.69;100.00;97413.45;108980;1260;66815;-71
2023/03/14 01:10:21;;;;;;;11.20;5.00;;;;;;;8.70;100.00;97397.32;108971;1265;72451;-71
2023/03/14 01:13:09;;;;;;;10.80;4.90;;;;;;;8.73;100.00;97394.42;108865;1260;59676;-70
2023/03/14 01:16:01;;;;;;;9.50;4.10;;;;;;;8.75;100.00;97402.80;108974;1260;60480;-72
2023/03/14 01:18:48;;;;;;;11.10;5.00;;;;;;;8.75;100.00;97402.66;108930;1260;74340;-71
2023/03/14 01:21:36;;;;;;;10.50;5.10;;;;;;;8.74;100.00;97399.85;109023;1260;68079;-70
2023/03/14 01:24:22;;;;;;;10.40;4.60;;;;;;;8.76;100.00;97408.98;109001;1260;72424;-71
2023/03/14 01:27:09;;;;;;;9.50;4.40;;;;;;;8.76;100.00;97404.05;108896;1260;59509;-71
2023/03/14 01:29:55;;;;;;;9.20;4.30;;;;;;;8.73;100.00;97390.81;108994;1260;60478;-70
2023/03/14 01:32:41;;;;;;;10.50;4.70;;;;;;;8.71;100.00;97396.29;108996;1260;73941;-72
2023/03/14 01:35:28;;;;;;;10.30;5.20;;;;;;;8.67;100.00;97399.47;108950;1260;66710;-71
2023/03/14 01:38:16;;;;;;;11.30;4.80;;;;;;;8.68;100.00;97396.63;108973;1260;72530;-71
2023/03/14 01:41:04;;;;;;;10.10;4.80;;;;;;;8.64;100.00;97386.97;108915;1260;58276;-72
2023/03/14 01:43:51;;;;;;;10.10;4.70;;;;;;;8.64;100.00;97393.55;108812;1260;61347;-72
2023/03/14 01:46:45;;;;;;;13.20;4.90;;;;;;;8.63;100.00;97393.52;108969;1260;70646;-72
2023/03/14 01:49:35;;;;;;;12.20;5.00;;;;;;;8.62;100.00;97392.11;108989;1260;67712;-72
2023/03/14 01:52:46;;;;;;;10.00;4.10;;;;;;;8.63;100.00;97385.51;109000;1260;72727;-70
2023/03/14 01:55:32;;;;;;;9.60;4.30;;;;;;;8.61;100.00;97372.43;108831;1260;57278;-70
2023/03/14 01:58:22;;;;;;;14.10;5.00;;;;;;;8.62;100.00;97370.61;108961;1260;58856;-69
2023/03/14 02:01:09;;;;;;;10.10;4.70;;;;;;;8.61;100.00;97362.52;109003;1260;71624;-69
2023/03/14 02:04:01;;;;;;;9.80;4.50;;;;;;;8.63;100.00;97362.38;108864;1260;67625;-68
2023/03/14 02:07:27;;;;;;;10.80;4.30;;;;;;;8.64;100.00;97351.31;108840;1260;72527;-68
2023/03/14 02:10:32;;;;;;;9.70;4.20;;;;;;;8.63;100.00;97338.13;108818;1260;59299;-68
2023/03/14 02:13:21;;;;;;;10.90;4.50;;;;;;;8.63;100.00;97343.39;108906;1260;60190;-70
2023/03/14 02:16:26;;;;;;;10.80;4.30;;;;;;;8.64;100.00;97342.79;108995;1260;72648;-69
2023/03/14 02:19:47;;;;;;;10.50;4.60;;;;;;;8.63;100.00;97341.80;108983;1260;65433;-69
2023/03/14 02:22:48;;;;;;;9.10;4.80;;;;;;;8.65;100.00;97344.15;108947;1261;73435;-68
2023/03/14 02:25:37;;;;;;;9.90;4.20;;;;;;;8.63;100.00;97350.31;108959;1260;60488;-71
2023/03/14 02:28:24;;;;;;;12.60;4.80;;;;;;;8.63;100.00;97362.11;109018;1260;59460;-71
2023/03/14 02:31:15;;;;;;;10.50;4.30;;;;;;;8.62;100.00;97347.60;108911;1260;72985;-70
2023/03/14 02:34:03;;;;;;;12.00;4.10;;;;;;;8.61;100.00;97328.79;108884;1260;68027;-70
2023/03/14 02:36:49;;;;;;;10.80;3.60;;;;;;;8.60;100.00;97331.98;108981;1260;72658;-73
2023/03/14 02:39:44;;;;;;;11.30;4.40;;;;;;;8.59;100.00;97331.84;108987;1260;58204;-71
2023/03/14 02:42:31;;;;;;;10.80;4.60;;;;;;;8.59;100.00;97333.97;108900;1260;60234;-71
2023/03/14 02:45:17;;;;;;;12.80;4.30;;;;;;;8.59;100.00;97337.21;108965;1260;70875;-70
2023/03/14 02:48:28;;;;;;;10.60;4.30;;;;;;;8.57;100.00;97342.56;108998;1260;66352;-71
2023/03/14 02:51:15;;;;;;;9.30;4.10;;;;;;;8.57;100.00;97349.58;108823;1260;72501;-71
2023/03/14 02:54:03;;;;;;;10.30;4.50;;;;;;;8.56;100.00;97347.98;108937;1260;58475;-71
2023/03/14 02:56:51;;;;;;;9.40;4.10;;;;;;;8.54;100.00;97355.02;108932;1260;60083;-72
2023/03/14 02:59:38;;;;;;;9.20;4.10;;;;;;;8.53;100.00;97362.89;108884;1260;73057;-71
2023/03/14 03:02:31;;;;;;;10.40;3.90;;;;;;;8.52;100.00;97374.45;108994;1260;66645;-72
2023/03/14 03:05:18;;;;;;;10.00;4.20;;;;;;;8.50;100.00;97384.45;108812;1260;72740;-71
2023/03/14 03:08:05;;;;;;;9.00;4.10;;;;;;;8.50;100.00;97388.19;109018;1260;60276;-71
2023/03/14 03:10:53;;;;;;;9.80;3.90;;;;;;;8.47;100.00;97398.73;108938;1260;60326;-71
2023/03/14 03:13:39;;;;;;;10.10;4.10;;;;;;;8.46;100.00;97388.29;109002;1260;71553;-71
2023/03/14 03:16:26;;;;;;;8.90;4.30;;;;;;;8.47;100.00;97396.64;109009;1260;67838;-71
2023/03/14 03:19:13;;;;;;;9.30;3.80;;;;;;;8.46;100.00;97406.44;108899;1262;72551;-69
2023/03/14 03:22:01;;;;;;;8.20;3.60;;;;;;;8.46;100.00;97420.04;108944;1260;57574;-70
2023/03/14 03:24:48;;;;;;;9.70;4.20;;;;;;;8.41;100.00;97410.65;108958;1260;59963;-71
2023/03/14 03:27:37;;;;;;;9.90;4.20;;;;;;;8.43;100.00;97419.81;109012;1260;73087;-71
2023/03/14 03:30:23;;;;;;;9.20;4.10;;;;;;;8.42;100.00;97421.48;108920;1260;67647;-70
2023/03/14 03:33:12;;;;;;;9.40;4.00;;;;;;;8.42;100.00;97430.24;108948;1261;73710;-70
2023/03/14 03:36:02;;;;;;;8.90;3.90;;;;;;;8.42;100.00;97427.93;108891;1260;60609;-70
2023/03/14 03:38:51;;;;;;;10.60;4.40;;;;;;;8.41;100.00;97436.55;109011;1260;60244;-70
2023/03/14 03:41:38;;;;;;;8.70;3.80;;;;;;;8.41;100.00;97438.64;109033;1262;74036;-71
2023/03/14 03:44:24;;;;;;;9.80;4.10;;;;;;;8.39;100.00;97440.04;108920;1260;68103;-71
2023/03/14 03:47:11;;;;;;;10.00;4.10;;;;;;;8.37;100.00;97443.25;108903;1260;72494;-69
2023/03/14 03:49:58;;;;;;;10.50;4.10;;;;;;;8.38;100.00;97438.81;109022;1260;58103;-71
2023/03/14 03:52:44;;;;;;;10.40;4.00;;;;;;;8.39;100.00;97432.28;108987;1260;60024;-70
2023/03/14 03:55:31;;;;;;;10.30;4.10;;;;;;;8.39;100.00;97425.59;108896;1260;72649;-70
2023/03/14 03:58:17;;;;;;;10.30;4.40;;;;;;;8.37;100.00;97433.05;108938;1260;66500;-70
2023/03/14 04:01:04;;;;;;;11.60;4.60;;;;;;;8.35;100.00;97435.90;108968;1261;72597;-68
2023/03/14 04:03:51;;;;;;;9.90;4.00;;;;;;;8.32;100.00;97435.38;108970;1260;59422;-69
2023/03/14 04:06:41;;;;;;;11.80;3.90;;;;;;;8.28;100.00;97422.70;108986;1261;60063;-67
2023/03/14 04:09:28;;;;;;;8.60;4.00;;;;;;;8.26;100.00;97426.09;108990;1260;71669;-70
2023/03/14 04:12:28;;;;;;;10.80;4.60;;;;;;;8.26;100.00;97420.86;108980;1260;67781;-69
2023/03/14 04:15:43;;;;;;;9.60;4.10;;;;;;;8.27;100.00;97421.09;108961;1260;73018;-70
2023/03/14 04:18:37;;;;;;;10.60;3.70;;;;;;;8.28;100.00;97420.71;108914;1262;59614;-69
2023/03/14 04:21:24;;;;;;;9.40;4.00;;;;;;;8.29;100.00;97415.38;108930;1262;60515;-69
2023/03/14 04:24:15;;;;;;;9.10;4.20;;;;;;;8.30;100.00;97407.89;108926;1260;73989;-69
2023/03/14 04:27:04;;;;;;;10.30;4.10;;;;;;;8.31;100.00;97400.64;108898;1260;68866;-69
2023/03/14 04:29:51;;;;;;;9.10;3.90;;;;;;;8.33;100.00;97393.05;108991;1260;70404;-69
2023/03/14 04:32:45;;;;;;;11.40;4.40;;;;;;;8.34;100.00;97380.40;108987;1259;57961;-71
2023/03/14 04:35:33;;;;;;;11.60;4.10;;;;;;;8.34;100.00;97377.83;109015;1260;60400;-70
2023/03/14 04:38:24;;;;;;;10.10;4.10;;;;;;;8.34;100.00;97379.63;108874;1260;73010;-70
2023/03/14 04:41:12;;;;;;;9.70;3.60;;;;;;;8.30;99.98;97377.91;108983;1260;67643;-71
2023/03/14 04:43:59;;;;;;;10.00;4.10;;;;;;;8.27;100.00;97373.16;108969;1260;71194;-71
2023/03/14 04:46:45;;;;;;;10.80;4.00;;;;;;;8.24;100.00;97361.02;108934;1260;59822;-72
2023/03/14 04:49:33;;;;;;;9.90;4.10;;;;;;;8.23;100.00;97352.43;108933;1259;60357;-71
2023/03/14 04:52:20;;;;;;;10.10;4.00;;;;;;;8.22;100.00;97350.59;108995;1260;71025;-71
2023/03/14 04:55:07;;;;;;;10.40;4.30;;;;;;;8.22;100.00;97349.76;108999;1260;67181;-72
2023/03/14 04:57:54;;;;;;;9.50;4.10;;;;;;;8.19;100.00;97345.82;108972;1260;72359;-71
2023/03/14 05:00:40;;;;;;;10.60;4.20;;;;;;;8.17;100.00;97345.66;108974;1260;57908;-73
2023/03/14 05:03:50;;;;;;;10.20;4.10;;;;;;;8.14;100.00;97350.41;108912;1263;60535;-74
2023/03/14 05:07:03;;;;;;;9.40;3.80;;;;;;;8.11;100.00;97336.27;108977;1260;73089;-73
2023/03/14 05:10:16;;;;;;;8.80;4.10;;;;;;;8.11;100.00;97328.90;108709;1260;67785;-73
2023/03/14 05:13:32;;;;;;;8.40;3.80;;;;;;;8.07;100.00;97326.99;108731;1260;71047;-72
2023/03/14 05:16:56;;;;;;;9.60;3.70;;;;;;;8.04;100.00;97325.17;108800;1260;59509;-73
2023/03/14 05:20:12;;;;;;;10.90;4.00;;;;;;;8.05;100.00;97327.45;108938;1260;60319;-72
2023/03/14 05:23:14;;;;;;;10.40;4.60;;;;;;;8.04;100.00;97317.83;108975;1260;74189;-73
2023/03/14 05:26:19;;;;;;;13.00;5.60;;;;;;;8.02;100.00;97305.11;109025;1260;66336;-73
2023/03/14 05:29:26;;;;;;;14.60;4.70;;;;;;;8.02;100.00;97298.59;108956;1259;71432;-74
2023/03/14 05:32:23;;;;;;;9.70;4.20;;;;;;;8.02;100.00;97302.33;108180;1259;1002353;-74
2023/03/14 05:35:27;;;;;;;12.40;4.70;;;;;;;8.00;100.00;97306.71;108959;1260;60357;-71
2023/03/14 05:38:31;;;;;;;10.10;4.50;;;;;;;7.97;100.00;97310.02;108989;1261;72894;-72
2023/03/14 05:41:36;;;;;;;13.90;5.50;;;;;;;7.97;100.00;97317.17;108989;1260;67872;-72
2023/03/14 05:44:37;;;;;;;10.30;4.20;;;;;;;7.96;100.00;97318.66;109016;1260;71228;-73
2023/03/14 05:47:32;;;;;;;11.70;4.60;;;;;;;7.96;100.00;97334.02;108957;1260;59523;-72
2023/03/14 05:50:41;;;;;;;11.40;3.80;;;;;;;7.94;100.00;97340.04;108987;1259;58935;-75
2023/03/14 05:53:39;;;;;;;10.60;4.30;;;;;;;7.96;100.00;97350.96;109024;1259;72868;-71
2023/03/14 05:56:44;;;;;;;11.30;3.60;;;;;;;7.98;100.00;97352.73;109048;1260;66447;-75
2023/03/14 05:59:53;;;;;;;8.10;3.60;;;;;;;7.97;100.00;97336.89;108885;1260;71311;-73
2023/03/14 06:02:59;;;;;;;9.50;3.70;;;;;;;8.04;100.00;97342.52;109003;1259;60593;-73
2023/03/14 06:05:51;;;;;;;9.30;3.40;;;;;;;8.07;100.00;97343.48;108946;1259;60435;-73
2023/03/14 06:08:37;;;;;;;9.80;4.00;;;;;;;8.09;100.00;97354.33;108955;1260;74079;-74
2023/03/14 06:11:24;;;;;;;11.30;4.30;;;;;;;8.11;100.00;97353.58;108968;1259;68833;-73
2023/03/14 06:14:10;;;;;;;9.80;3.90;;;;;;;8.17;100.00;97343.02;108861;1260;71443;-72
2023/03/14 06:16:59;;;;;;;9.00;3.20;;;;;;;8.25;100.00;97348.75;108967;1259;59750;-72
2023/03/14 06:19:47;;;;;;;11.20;4.10;;;;;;;8.29;99.95;97359.00;108741;1264;59640;-75
2023/03/14 06:22:33;;;;;;;9.20;3.40;;;;;;;8.32;99.95;97360.24;108774;1263;72529;-72
2023/03/14 06:25:21;;;;;;;10.40;3.80;;;;;;;8.39;99.86;97362.02;108798;1263;67735;-71
2023/03/14 06:28:08;;;;;;;9.80;3.60;;;;;;;8.43;99.73;97351.44;108756;1262;72201;-73
2023/03/14 06:30:54;;;;;;;10.50;3.60;;;;;;;8.48;99.56;97342.64;108753;1263;57957;-74
2023/03/14 06:33:41;;;;;;;10.00;3.60;;;;;;;8.53;99.47;97343.67;108782;1263;61467;-73
2023/03/14 06:36:28;;;;;;;11.30;4.80;;;;;;;8.57;99.31;97334.93;108786;1263;71853;-73
2023/03/14 06:39:15;;;;;;;8.50;3.50;;;;;;;8.64;99.21;97349.83;108790;1263;67728;-69
2023/03/14 06:42:04;;;;;;;14.00;5.70;;;;;;;8.71;98.71;97344.85;108772;1262;71409;-71
2023/03/14 06:44:51;;;;;;;10.80;3.80;;;;;;;8.76;98.68;97345.85;108615;1263;59602;-69
2023/03/14 06:47:38;;;;;;;9.10;4.10;;;;;;;8.80;97.99;97344.89;108853;1262;59058;-69
2023/03/14 06:50:24;;;;;;;11.60;4.80;;;;;;;8.84;98.10;97351.83;108917;1260;71840;-68
2023/03/14 06:53:12;;;;;;;9.20;3.70;;;;;;;8.88;97.85;97346.08;108965;1259;67931;-69
2023/03/14 06:56:00;;;;;;;11.10;3.60;;;;;;;8.94;97.91;97338.48;108936;1259;73072;-70
2023/03/14 06:58:47;;;;;;;10.00;3.80;;;;;;;9.03;97.59;97345.59;108950;1260;59374;-69
2023/03/14 07:01:36;;;;;;;9.50;3.50;;;;;;;9.14;97.20;97345.11;108958;1260;61292;-75
2023/03/14 07:04:27;;;;;;;7.90;3.40;;;;;;;9.22;96.49;97345.10;108995;1259;73157;-74
2023/03/14 07:07:14;;;;;;;10.00;3.70;;;;;;;9.30;96.06;97341.98;109011;1259;67838;-72
2023/03/14 07:10:00;;;;;;;8.10;3.20;;;;;;;9.47;96.14;97345.73;108973;1259;72525;-72
2023/03/14 07:12:47;;;;;;;9.30;2.90;;;;;;;9.66;94.98;97344.41;108878;1262;58258;-74
2023/03/14 07:15:33;;;;;;;8.80;3.30;;;;;;;9.78;94.35;97347.95;108841;1263;60375;-72
2023/03/14 07:18:23;;;;;;;9.40;3.60;;;;;;;9.91;93.97;97351.98;108740;1263;73244;-72
2023/03/14 07:21:10;;;;;;;8.70;3.10;;;;;;;10.05;93.46;97361.18;108825;1263;66298;-77
2023/03/14 07:23:57;;;;;;;9.70;3.00;;;;;;;10.26;92.57;97355.42;108729;1263;72900;-74
2023/03/14 07:26:43;;;;;;;7.40;2.80;;;;;;;10.63;91.31;97346.64;108714;1266;59581;-73
2023/03/14 07:29:30;;;;;;;7.00;2.90;;;;;;;10.84;89.79;97335.35;108615;1266;60258;-72
2023/03/14 07:32:18;;;;;;;7.50;3.10;;;;;;;11.10;88.57;97329.86;108559;1266;71321;-73
2023/03/14 07:35:06;;;;;;;8.10;3.30;;;;;;;11.30;86.95;97320.98;108396;1266;67826;-74
2023/03/14 07:37:55;;;;;;;7.30;3.40;;;;;;;11.51;85.89;97308.27;108476;1265;70846;-73
2023/03/14 07:40:47;;;;;;;8.30;3.10;;;;;;;11.83;84.87;97309.33;108527;1266;59519;-73
2023/03/14 07:43:34;;;;;;;8.20;3.10;;;;;;;12.34;83.30;97310.02;108680;1263;60172;-73
2023/03/14 07:46:20;;;;;;;9.30;3.60;;;;;;;12.76;81.34;97294.92;108738;1264;71651;-75
2023/03/14 07:49:07;;;;;;;10.90;3.90;;;;;;;13.37;80.68;97287.48;108864;1261;67953;-73
2023/03/14 07:51:54;;;;;;;8.20;3.30;;;;;;;13.62;77.08;97285.58;108869;1262;72762;-75
2023/03/14 07:54:40;;;;;;;7.60;3.40;;;;;;;13.47;76.36;97289.63;108771;1262;57493;-73
2023/03/14 07:57:27;;;;;;;8.80;3.10;;;;;;;13.17;76.69;97290.12;108853;1262;60339;-74
2023/03/14 08:00:14;;;;;;;12.10;2.80;;;;;;;13.06;77.87;97296.13;108849;1263;71685;-74
2023/03/14 08:03:02;;;;;;;7.80;3.00;;;;;;;13.04;77.47;97287.34;108883;1262;68610;-71
2023/03/14 08:05:50;;;;;;;7.50;2.90;;;;;;;12.95;77.99;97284.11;108847;1263;72541;-72
2023/03/14 08:08:37;;;;;;;7.10;2.90;;;;;;;12.81;78.89;97285.06;109023;1259;57805;-75
2023/03/14 08:11:24;;;;;;;8.00;3.30;;;;;;;12.70;79.27;97288.54;109005;1260;61201;-73
2023/03/14 08:14:11;;;;;;;7.60;2.80;;;;;;;12.58;79.72;97280.82;109022;1260;73718;-73
2023/03/14 08:16:57;;;;;;;7.70;3.30;;;;;;;12.37;80.67;97281.15;109091;1259;65817;-73
2023/03/14 08:19:44;;;;;;;8.80;3.20;;;;;;;12.17;81.61;97280.14;109024;1260;72498;-73
2023/03/14 08:22:31;;;;;;;9.30;3.80;;;;;;;11.98;82.47;97278.98;109040;1259;58198;-73
2023/03/14 08:25:18;;;;;;;8.10;3.30;;;;;;;11.80;83.33;97270.93;109056;1259;60221;-73
2023/03/14 08:28:05;;;;;;;10.10;3.80;;;;;;;11.80;84.00;97266.27;109032;1259;71911;-72
2023/03/14 08:30:54;;;;;;;8.10;3.80;;;;;;;11.84;83.84;97268.30;109075;1260;67626;-73
2023/03/14 08:33:41;;;;;;;8.60;3.40;;;;;;;11.87;83.71;97257.05;108960;1260;71405;-73
2023/03/14 08:36:27;;;;;;;8.00;3.10;;;;;;;11.96;83.56;97260.48;109036;1259;59643;-73
2023/03/14 08:39:14;;;;;;;8.50;3.70;;;;;;;11.89;83.76;97265.50;109004;1260;60503;-74
2023/03/14 08:42:00;;;;;;;7.80;3.50;;;;;;;11.81;84.18;97257.01;109042;1260;73886;-72
2023/03/14 08:44:47;;;;;;;10.20;3.60;;;;;;;11.68;84.59;97254.46;108991;1259;66615;-72
2023/03/14 08:47:33;;;;;;;7.80;2.90;;;;;;;11.60;85.03;97259.98;109037;1260;72495;-73
2023/03/14 08:50:20;;;;;;;7.90;3.50;;;;;;;11.49;85.69;97259.41;108971;1259;59946;-72
2023/03/14 08:53:08;;;;;;;8.40;3.40;;;;;;;11.46;86.19;97249.63;109011;1260;58994;-73
2023/03/14 08:55:55;;;;;;;7.50;3.40;;;;;;;11.43;86.37;97257.84;109034;1260;71735;-74
2023/03/14 08:58:42;;;;;;;7.40;3.40;;;;;;;11.39;86.37;97269.30;108997;1260;66510;-74
2023/03/14 09:01:29;;;;;;;8.30;3.50;;;;;;;11.35;86.64;97275.52;109001;1259;72522;-73
2023/03/14 09:04:16;;;;;;;8.40;3.30;;;;;;;11.39;86.59;97269.45;109024;1260;59355;-75
2023/03/14 09:07:03;;;;;;;8.20;3.60;;;;;;;11.39;86.66;97277.98;109060;1260;60184;-73
2023/03/14 09:09:49;;;;;;;9.90;3.40;;;;;;;11.33;86.83;97280.91;108970;1259;70665;-74
2023/03/14 09:12:36;;;;;;;9.60;3.50;;;;;;;11.31;86.98;97283.23;109018;1259;67727;-74
2023/03/14 09:15:22;;;;;;;9.50;3.20;;;;;;;11.28;86.88;97270.48;108988;1260;73496;-72
2023/03/14 09:18:09;;;;;;;9.10;3.80;;;;;;;11.28;87.01;97272.48;109042;1259;57953;-77
2023/03/14 09:20:56;;;;;;;10.40;3.50;;;;;;;11.24;87.29;97275.08;108929;1259;59104;-72
2023/03/14 09:23:42;;;;;;;8.00;3.30;;;;;;;11.20;87.46;97274.50;108983;1259;72183;-74
2023/03/14 09:26:30;;;;;;;8.80;3.50;;;;;;;11.22;87.23;97267.55;109043;1260;67378;-71
2023/03/14 09:29:16;;;;;;;8.40;3.70;;;;;;;11.31;86.62;97281.64;108938;1259;70410;-72
2023/03/14 09:32:03;;;;;;;7.30;3.30;;;;;;;11.37;86.21;97289.08;108940;1259;57445;-73
2023/03/14 09:34:50;;;;;;;7.60;3.30;;;;;;;11.57;85.69;97291.67;108967;1259;59468;-73
2023/03/14 09:37:36;;;;;;;9.50;3.70;;;;;;;11.88;83.80;97289.93;109031;1259;73171;-74
2023/03/14 09:40:23;;;;;;;6.50;2.90;;;;;;;12.26;82.91;97284.30;109032;1260;67859;-72
2023/03/14 09:43:15;;;;;;;8.30;3.40;;;;;;;12.53;81.21;97290.48;108998;1260;70512;-73
2023/03/14 09:46:02;;;;;;;9.30;3.40;;;;;;;12.68;80.40;97281.96;109024;1259;57744;-72
2023/03/14 09:48:49;;;;;;;8.30;3.30;;;;;;;12.73;79.70;97267.86;109047;1259;58833;-73
2023/03/14 09:51:36;;;;;;;9.00;3.50;;;;;;;12.66;79.75;97270.80;108985;1259;73145;-74
2023/03/14 09:54:39;;;;;;;8.20;3.70;;;;;;;12.58;79.98;97283.98;108878;1259;68572;-73
2023/03/14 09:57:27;;;;;;;7.60;3.50;;;;;;;12.52;80.44;97290.03;108960;1259;71480;-75
2023/03/14 10:00:21;;;;;;;8.80;3.30;;;;;;;12.52;80.55;97281.63;108927;1259;57351;-75
2023/03/14 10:03:24;;;;;;;8.90;3.70;;;;;;;12.39;80.57;97281.28;109021;1260;60353;-77
2023/03/14 10:06:15;;;;;;;9.10;3.90;;;;;;;12.20;81.34;97277.62;109047;1259;72876;-74
2023/03/14 10:09:03;;;;;;;9.20;3.80;;;;;;;12.11;81.76;97281.23;109010;1259;66905;-73
2023/03/14 10:11:50;;;;;;;9.60;3.90;;;;;;;12.23;81.61;97277.36;108997;1259;73480;-75
2023/03/14 10:14:46;;;;;;;9.00;3.80;;;;;;;12.16;81.29;97282.70;108966;1259;57368;-74
2023/03/14 10:18:04;;;;;;;8.30;3.50;;;;;;;12.08;81.52;97287.86;109071;1259;58977;-72
2023/03/14 10:21:27;;;;;;;8.00;3.40;;;;;;;12.16;81.47;97285.04;109013;1260;72962;-73
2023/03/14 10:24:24;;;;;;;9.00;4.20;;;;;;;12.32;80.54;97293.48;108955;1260;66602;-73
2023/03/14 10:27:28;;;;;;;7.50;3.20;;;;;;;12.44;80.19;97295.02;108963;1259;71462;-72
2023/03/14 10:30:45;;;;;;;8.10;3.70;;;;;;;12.50;79.11;97291.42;108941;1259;59017;-73
2023/03/14 10:33:36;;;;;;;10.00;3.80;;;;;;;12.53;79.02;97277.48;109005;1260;59729;-73
2023/03/14 10:36:29;;;;;;;7.20;3.40;;;;;;;12.46;78.56;97279.96;109050;1260;72251;-72
2023/03/14 10:39:25;;;;;;;7.10;3.20;;;;;;;12.50;78.83;97289.95;108965;1259;67031;-73
2023/03/14 10:42:20;;;;;;;8.90;4.10;;;;;;;12.51;78.70;97303.08;109047;1259;72787;-73
2023/03/14 10:45:24;;;;;;;8.30;3.90;;;;;;;12.47;78.89;97300.19;109061;1259;57991;-73
2023/03/14 10:48:23;;;;;;;8.70;3.80;;;;;;;12.41;79.19;97297.48;108983;1259;60476;-72
2023/03/14 10:51:25;;;;;;;8.70;4.00;;;;;;;12.21;79.67;97303.23;109042;1259;72883;-71
2023/03/14 10:54:20;;;;;;;10.70;4.10;;;;;;;12.07;80.52;97301.96;109110;1260;68316;-73
2023/03/14 10:57:07;;;;;;;9.10;3.70;;;;;;;11.97;81.02;97302.73;109011;1260;72699;-73
2023/03/14 10:59:56;;;;;;;8.00;3.60;;;;;;;11.86;81.71;97293.27;108925;1259;57742;-74
2023/03/14 11:03:20;;;;;;;10.80;3.70;;;;;;;11.87;81.56;97276.64;108968;1260;62429;-73
2023/03/14 11:06:34;;;;;;;9.40;3.70;;;;;;;11.87;81.59;97268.96;109048;1260;72984;-76
2023/03/14 11:09:50;;;;;;;8.90;3.50;;;;;;;12.01;81.15;97261.00;109014;1260;66404;-72
2023/03/14 11:13:23;;;;;;;9.10;3.70;;;;;;;12.15;80.32;97261.02;109078;1260;71256;-74
2023/03/14 11:16:30;;;;;;;7.70;3.70;;;;;;;12.22;79.76;97263.52;109036;1259;57992;-71
2023/03/14 11:19:44;;;;;;;8.40;3.90;;;;;;;12.25;79.98;97254.06;109062;1260;58799;-73
2023/03/14 11:23:18;;;;;;;8.90;4.30;;;;;;;12.58;78.65;97240.93;108963;1260;72824;-73
2023/03/14 11:26:31;;;;;;;9.10;3.80;;;;;;;12.90;77.09;97246.14;108529;1267;65342;-71
2023/03/14 11:29:30;;;;;;;9.80;3.40;;;;;;;13.00;76.17;97248.73;108537;1267;72494;-71
2023/03/14 11:32:37;;;;;;;10.30;3.70;;;;;;;13.08;75.87;97249.44;108537;1267;58061;-73
2023/03/14 11:35:48;;;;;;;8.70;3.20;;;;;;;13.17;74.86;97244.15;108350;1267;60153;-71
2023/03/14 11:38:43;;;;;;;8.50;3.70;;;;;;;13.13;74.95;97244.84;108283;1266;72962;-73
2023/03/14 11:41:39;;;;;;;7.90;3.20;;;;;;;13.00;75.59;97237.73;108354;1267;66457;-72
2023/03/14 11:44:40;;;;;;;7.80;3.40;;;;;;;12.85;76.06;97235.24;108337;1267;72664;-71
2023/03/14 11:47:34;;;;;;;10.20;3.90;;;;;;;12.71;76.28;97234.59;108475;1267;57931;-71
2023/03/14 11:50:29;;;;;;;9.90;3.30;;;;;;;12.54;76.90;97237.67;108211;1267;196172;-70
2023/03/14 11:53:47;;;;;;;9.30;3.70;;;;;;;12.48;77.29;97236.55;108558;1267;71694;-72
2023/03/14 11:56:50;;;;;;;8.00;3.70;;;;;;;12.42;77.50;97234.02;108456;1267;67968;-73
2023/03/14 12:00:12;;;;;;;7.60;3.10;;;;;;;12.35;77.68;97235.98;108455;1267;71317;-73
2023/03/14 12:03:39;;;;;;;7.90;2.90;;;;;;;12.36;77.99;97246.42;108863;1259;58141;-72
2023/03/14 12:06:31;;;;;;;8.60;3.30;;;;;;;12.54;77.65;97237.39;108750;1263;61234;-74
2023/03/14 12:09:21;;;;;;;10.30;3.80;;;;;;;12.76;76.81;97241.87;108758;1263;73447;-73
2023/03/14 12:12:17;;;;;;;7.70;3.20;;;;;;;12.95;75.99;97239.45;108766;1263;66441;-71
2023/03/14 12:15:05;;;;;;;8.10;3.20;;;;;;;13.21;74.55;97241.80;108623;1263;72834;-71
2023/03/14 12:17:57;;;;;;;8.60;2.90;;;;;;;13.84;71.86;97233.09;108708;1263;57740;-72
2023/03/14 12:20:54;;;;;;;10.20;3.40;;;;;;;14.06;69.93;97238.18;108783;1263;60446;-72
2023/03/14 12:23:49;;;;;;;10.30;3.20;;;;;;;14.01;69.40;97239.60;108706;1263;72908;-71
2023/03/14 12:27:40;;;;;;;7.80;3.10;;;;;;;13.82;69.50;97242.48;108658;1263;66339;-71
2023/03/14 12:30:41;;;;;;;7.60;2.80;;;;;;;13.88;69.25;97244.35;108167;1270;71132;-71
2023/03/14 12:33:31;;;;;;;7.70;3.00;;;;;;;14.36;67.36;97233.45;108204;1270;58762;-71
2023/03/14 12:36:44;;;;;;;8.90;3.50;;;;;;;14.50;66.60;97220.33;107930;1271;58188;-74
2023/03/14 12:39:58;;;;;;;9.20;3.60;;;;;;;14.70;66.07;97215.33;108518;1267;72932;-72
2023/03/14 12:43:03;;;;;;;9.30;3.60;;;;;;;14.55;66.19;97216.89;108575;1267;66497;-70
2023/03/14 12:46:14;;;;;;;9.60;3.50;;;;;;;14.45;66.25;97220.33;108476;1267;72424;-70
2023/03/14 12:49:02;;;;;;;9.30;3.50;;;;;;;14.26;67.08;97222.75;108478;1267;57720;-72
2023/03/14 12:52:01;;;;;;;8.30;3.00;;;;;;;14.04;67.41;97228.92;108546;1267;59005;-72
2023/03/14 12:55:10;;;;;;;7.00;2.50;;;;;;;14.02;67.51;97223.76;108361;1267;72889;-71
2023/03/14 12:58:16;;;;;;;8.40;2.80;;;;;;;13.83;68.07;97215.96;108560;1267;66723;-70
2023/03/14 13:01:07;;;;;;;11.70;3.30;;;;;;;13.57;69.01;97220.98;108449;1267;72511;-73
2023/03/14 13:04:07;;;;;;;9.20;2.80;;;;;;;13.46;69.16;97219.48;108736;1259;57831;-71
2023/03/14 13:06:59;;;;;;;7.40;2.70;;;;;;;13.42;69.54;97224.45;108964;1259;58689;-72
2023/03/14 13:10:08;;;;;;;8.20;2.50;;;;;;;13.35;69.41;97225.79;109017;1259;71540;-71
2023/03/14 13:13:21;;;;;;;8.30;2.70;;;;;;;13.30;69.60;97228.73;109037;1260;67808;-71
2023/03/14 13:16:15;;;;;;;9.40;2.80;;;;;;;13.30;69.31;97226.02;109046;1259;71375;-70
2023/03/14 13:19:20;;;;;;;8.50;2.60;;;;;;;13.40;68.97;97216.77;108894;1261;57325;-72
2023/03/14 13:22:33;;;;;;;8.00;2.50;;;;;;;13.52;68.81;97215.85;108969;1259;60412;-73